Emigrant, Montana
Current Conditions -  °F | °C
As of 4:53 PM on Wednesday 22 Oct 2014 (Local Time) from KLVM Reporting Station
Clear Clear  
Wind Chill: 58°   Ceiling: Unl
Heat Index: 58°   Visibility: 10mi
Dew Point: 26°   Wind: 26mph
Humidity: 30%   Direction: 240°WSW
Pressure: 29.99"   Gusts: 35mph
Location:  45.34°N, 110.76°W
Report Text: KLVM 222253Z AUTO 24023G30KT 10SM CLR 14/M03 A2999 RMK AO2 PK WND 23037/2227 SLP144 T01441033
Loading
Personal Weather Stations






























Interactive Weather Map
Tropical Storm Tracking
New forecast layout! Learn more

10-Day Weather Forecast

Advertisements
Track Severe Weather on mobile